sensor_id;sensor_type;location;lat;lon;timestamp;P1;durP1;ratioP1;P2;durP2;ratioP2
35294;SDS011;21413;48.032;7.764;2022-08-24T00:01:55;4.77;;;4.57;;
35294;SDS011;21413;48.032;7.764;2022-08-24T00:04:21;4.63;;;4.33;;
35294;SDS011;21413;48.032;7.764;2022-08-24T00:06:47;3.90;;;3.80;;
35294;SDS011;21413;48.032;7.764;2022-08-24T00:09:14;5.30;;;4.30;;
35294;SDS011;21413;48.032;7.764;2022-08-24T00:11:40;4.50;;;4.30;;
35294;SDS011;21413;48.032;7.764;2022-08-24T00:14:06;6.23;;;4.83;;
35294;SDS011;21413;48.032;7.764;2022-08-24T00:16:33;5.40;;;5.00;;
35294;SDS011;21413;48.032;7.764;2022-08-24T00:19:00;5.80;;;4.47;;
35294;SDS011;21413;48.032;7.764;2022-08-24T00:21:26;5.13;;;4.73;;
35294;SDS011;21413;48.032;7.764;2022-08-24T00:23:52;4.47;;;4.27;;
35294;SDS011;21413;48.032;7.764;2022-08-24T00:26:18;5.33;;;4.90;;
35294;SDS011;21413;48.032;7.764;2022-08-24T00:28:44;4.80;;;4.70;;
35294;SDS011;21413;48.032;7.764;2022-08-24T00:31:10;7.00;;;5.33;;
35294;SDS011;21413;48.032;7.764;2022-08-24T00:33:37;5.13;;;4.93;;
35294;SDS011;21413;48.032;7.764;2022-08-24T00:36:03;7.00;;;4.47;;
35294;SDS011;21413;48.032;7.764;2022-08-24T00:38:30;4.93;;;4.57;;
35294;SDS011;21413;48.032;7.764;2022-08-24T00:40:56;5.03;;;4.77;;
35294;SDS011;21413;48.032;7.764;2022-08-24T00:43:22;5.10;;;4.63;;
35294;SDS011;21413;48.032;7.764;2022-08-24T00:45:54;7.73;;;4.60;;
35294;SDS011;21413;48.032;7.764;2022-08-24T00:48:24;4.60;;;4.50;;
35294;SDS011;21413;48.032;7.764;2022-08-24T00:51:35;4.80;;;4.50;;
35294;SDS011;21413;48.032;7.764;2022-08-24T00:53:43;5.47;;;5.13;;
35294;SDS011;21413;48.032;7.764;2022-08-24T00:56:17;4.90;;;4.57;;
35294;SDS011;21413;48.032;7.764;2022-08-24T00:58:52;4.80;;;4.53;;
35294;SDS011;21413;48.032;7.764;2022-08-24T01:01:21;5.30;;;4.80;;
35294;SDS011;21413;48.032;7.764;2022-08-24T01:03:47;4.77;;;4.47;;
35294;SDS011;21413;48.032;7.764;2022-08-24T01:06:13;5.50;;;4.83;;
35294;SDS011;21413;48.032;7.764;2022-08-24T01:08:39;4.93;;;4.57;;
35294;SDS011;21413;48.032;7.764;2022-08-24T01:11:07;4.87;;;4.60;;
35294;SDS011;21413;48.032;7.764;2022-08-24T01:13:36;4.40;;;4.10;;
35294;SDS011;21413;48.032;7.764;2022-08-24T01:16:03;4.47;;;4.20;;
35294;SDS011;21413;48.032;7.764;2022-08-24T01:18:30;4.37;;;4.07;;
35294;SDS011;21413;48.032;7.764;2022-08-24T01:23:47;4.23;;;4.10;;
35294;SDS011;21413;48.032;7.764;2022-08-24T01:26:16;5.70;;;4.83;;
35294;SDS011;21413;48.032;7.764;2022-08-24T01:28:44;4.67;;;4.40;;
35294;SDS011;21413;48.032;7.764;2022-08-24T01:31:11;4.47;;;4.10;;
35294;SDS011;21413;48.032;7.764;2022-08-24T01:33:37;4.60;;;4.40;;
35294;SDS011;21413;48.032;7.764;2022-08-24T01:36:05;4.40;;;4.20;;
35294;SDS011;21413;48.032;7.764;2022-08-24T01:38:33;5.30;;;4.87;;
35294;SDS011;21413;48.032;7.764;2022-08-24T01:41:00;8.90;;;4.83;;
35294;SDS011;21413;48.032;7.764;2022-08-24T01:43:26;9.67;;;5.03;;
35294;SDS011;21413;48.032;7.764;2022-08-24T01:45:52;4.93;;;4.70;;
35294;SDS011;21413;48.032;7.764;2022-08-24T01:48:19;4.80;;;4.30;;
35294;SDS011;21413;48.032;7.764;2022-08-24T01:50:45;13.40;;;5.00;;
35294;SDS011;21413;48.032;7.764;2022-08-24T01:53:12;4.70;;;4.50;;
35294;SDS011;21413;48.032;7.764;2022-08-24T01:55:38;4.80;;;4.47;;
35294;SDS011;21413;48.032;7.764;2022-08-24T01:58:05;4.93;;;4.70;;
35294;SDS011;21413;48.032;7.764;2022-08-24T02:00:31;4.40;;;4.30;;
35294;SDS011;21413;48.032;7.764;2022-08-24T02:02:58;4.97;;;4.57;;
35294;SDS011;21413;48.032;7.764;2022-08-24T02:05:24;7.73;;;4.70;;
35294;SDS011;21413;48.032;7.764;2022-08-24T02:07:50;4.63;;;4.20;;
35294;SDS011;21413;48.032;7.764;2022-08-24T02:10:16;5.07;;;4.70;;
35294;SDS011;21413;48.032;7.764;2022-08-24T02:12:43;7.93;;;4.57;;
35294;SDS011;21413;48.032;7.764;2022-08-24T02:15:21;4.67;;;4.47;;
35294;SDS011;21413;48.032;7.764;2022-08-24T02:17:50;4.77;;;4.40;;
35294;SDS011;21413;48.032;7.764;2022-08-24T02:20:16;5.13;;;4.83;;
35294;SDS011;21413;48.032;7.764;2022-08-24T02:22:42;4.53;;;4.23;;
35294;SDS011;21413;48.032;7.764;2022-08-24T02:25:08;6.13;;;5.37;;
35294;SDS011;21413;48.032;7.764;2022-08-24T02:27:34;5.37;;;5.07;;
35294;SDS011;21413;48.032;7.764;2022-08-24T02:30:00;5.83;;;5.10;;
35294;SDS011;21413;48.032;7.764;2022-08-24T02:32:26;5.83;;;5.37;;
35294;SDS011;21413;48.032;7.764;2022-08-24T02:34:52;4.93;;;4.57;;
35294;SDS011;21413;48.032;7.764;2022-08-24T02:37:18;5.00;;;4.47;;
35294;SDS011;21413;48.032;7.764;2022-08-24T02:39:44;5.87;;;5.37;;
35294;SDS011;21413;48.032;7.764;2022-08-24T02:42:10;6.63;;;4.97;;
35294;SDS011;21413;48.032;7.764;2022-08-24T02:44:36;5.23;;;4.73;;
35294;SDS011;21413;48.032;7.764;2022-08-24T02:47:02;5.50;;;4.50;;
35294;SDS011;21413;48.032;7.764;2022-08-24T02:49:28;10.47;;;9.40;;
35294;SDS011;21413;48.032;7.764;2022-08-24T02:51:54;11.17;;;9.70;;
35294;SDS011;21413;48.032;7.764;2022-08-24T02:54:20;7.20;;;6.70;;
35294;SDS011;21413;48.032;7.764;2022-08-24T02:56:46;5.80;;;5.43;;
35294;SDS011;21413;48.032;7.764;2022-08-24T02:59:13;7.10;;;6.40;;
35294;SDS011;21413;48.032;7.764;2022-08-24T03:01:40;7.13;;;6.13;;
35294;SDS011;21413;48.032;7.764;2022-08-24T03:04:06;8.10;;;6.40;;
35294;SDS011;21413;48.032;7.764;2022-08-24T03:06:32;6.57;;;6.00;;
35294;SDS011;21413;48.032;7.764;2022-08-24T03:08:58;6.10;;;5.57;;
35294;SDS011;21413;48.032;7.764;2022-08-24T03:11:24;6.77;;;6.20;;
35294;SDS011;21413;48.032;7.764;2022-08-24T03:13:50;5.97;;;5.47;;
35294;SDS011;21413;48.032;7.764;2022-08-24T03:16:16;7.87;;;6.50;;
35294;SDS011;21413;48.032;7.764;2022-08-24T03:18:42;6.90;;;4.70;;
35294;SDS011;21413;48.032;7.764;2022-08-24T03:21:08;4.53;;;4.43;;
35294;SDS011;21413;48.032;7.764;2022-08-24T03:23:35;5.40;;;5.00;;
35294;SDS011;21413;48.032;7.764;2022-08-24T03:26:01;5.43;;;5.03;;
35294;SDS011;21413;48.032;7.764;2022-08-24T03:28:27;5.50;;;5.30;;
35294;SDS011;21413;48.032;7.764;2022-08-24T03:30:53;5.50;;;5.20;;
35294;SDS011;21413;48.032;7.764;2022-08-24T03:33:19;6.13;;;5.30;;
35294;SDS011;21413;48.032;7.764;2022-08-24T03:35:45;6.33;;;5.73;;
35294;SDS011;21413;48.032;7.764;2022-08-24T03:38:11;5.40;;;5.20;;
35294;SDS011;21413;48.032;7.764;2022-08-24T03:40:37;5.57;;;5.20;;
35294;SDS011;21413;48.032;7.764;2022-08-24T03:43:04;5.00;;;4.53;;
35294;SDS011;21413;48.032;7.764;2022-08-24T03:45:30;6.17;;;5.77;;
35294;SDS011;21413;48.032;7.764;2022-08-24T03:47:57;6.10;;;4.97;;
35294;SDS011;21413;48.032;7.764;2022-08-24T03:50:23;5.67;;;5.10;;
35294;SDS011;21413;48.032;7.764;2022-08-24T03:52:49;5.40;;;4.93;;
35294;SDS011;21413;48.032;7.764;2022-08-24T03:55:16;4.97;;;4.67;;
35294;SDS011;21413;48.032;7.764;2022-08-24T03:57:42;9.00;;;5.70;;
35294;SDS011;21413;48.032;7.764;2022-08-24T04:00:09;10.40;;;5.20;;
35294;SDS011;21413;48.032;7.764;2022-08-24T04:02:36;6.13;;;5.83;;
35294;SDS011;21413;48.032;7.764;2022-08-24T04:05:02;5.47;;;5.07;;
35294;SDS011;21413;48.032;7.764;2022-08-24T04:07:28;5.10;;;4.90;;
35294;SDS011;21413;48.032;7.764;2022-08-24T04:09:55;4.93;;;4.77;;
35294;SDS011;21413;48.032;7.764;2022-08-24T04:12:21;5.50;;;5.00;;
35294;SDS011;21413;48.032;7.764;2022-08-24T04:14:49;5.10;;;4.90;;
35294;SDS011;21413;48.032;7.764;2022-08-24T04:17:15;4.90;;;4.70;;
35294;SDS011;21413;48.032;7.764;2022-08-24T04:19:41;5.43;;;4.93;;
35294;SDS011;21413;48.032;7.764;2022-08-24T04:22:21;4.77;;;4.57;;
35294;SDS011;21413;48.032;7.764;2022-08-24T04:24:48;5.43;;;5.13;;
35294;SDS011;21413;48.032;7.764;2022-08-24T04:27:14;5.13;;;4.70;;
35294;SDS011;21413;48.032;7.764;2022-08-24T04:29:39;6.90;;;6.33;;
35294;SDS011;21413;48.032;7.764;2022-08-24T04:32:05;10.07;;;8.97;;
35294;SDS011;21413;48.032;7.764;2022-08-24T04:34:32;6.90;;;6.40;;
35294;SDS011;21413;48.032;7.764;2022-08-24T04:36:58;7.13;;;5.67;;
35294;SDS011;21413;48.032;7.764;2022-08-24T04:39:24;7.00;;;6.40;;
35294;SDS011;21413;48.032;7.764;2022-08-24T04:41:50;5.43;;;4.93;;
35294;SDS011;21413;48.032;7.764;2022-08-24T04:44:16;7.13;;;6.43;;
35294;SDS011;21413;48.032;7.764;2022-08-24T04:46:42;5.53;;;5.13;;
35294;SDS011;21413;48.032;7.764;2022-08-24T04:49:09;6.47;;;6.07;;
35294;SDS011;21413;48.032;7.764;2022-08-24T04:51:35;5.57;;;5.27;;
35294;SDS011;21413;48.032;7.764;2022-08-24T04:54:01;5.90;;;5.30;;
35294;SDS011;21413;48.032;7.764;2022-08-24T04:56:27;6.27;;;5.63;;
35294;SDS011;21413;48.032;7.764;2022-08-24T04:58:53;7.80;;;5.43;;
35294;SDS011;21413;48.032;7.764;2022-08-24T05:01:21;5.50;;;5.30;;
35294;SDS011;21413;48.032;7.764;2022-08-24T05:03:48;5.30;;;5.10;;
35294;SDS011;21413;48.032;7.764;2022-08-24T05:06:15;5.77;;;5.30;;
35294;SDS011;21413;48.032;7.764;2022-08-24T05:08:41;9.40;;;5.93;;
35294;SDS011;21413;48.032;7.764;2022-08-24T05:11:07;6.40;;;5.73;;
35294;SDS011;21413;48.032;7.764;2022-08-24T05:13:34;5.53;;;5.23;;
35294;SDS011;21413;48.032;7.764;2022-08-24T05:16:04;5.63;;;5.40;;
35294;SDS011;21413;48.032;7.764;2022-08-24T05:18:30;5.97;;;5.67;;
35294;SDS011;21413;48.032;7.764;2022-08-24T05:20:57;5.93;;;5.60;;
35294;SDS011;21413;48.032;7.764;2022-08-24T05:23:25;9.83;;;5.70;;
35294;SDS011;21413;48.032;7.764;2022-08-24T05:25:51;27.23;;;22.57;;
35294;SDS011;21413;48.032;7.764;2022-08-24T05:28:17;7.67;;;7.17;;
35294;SDS011;21413;48.032;7.764;2022-08-24T05:30:45;17.67;;;15.23;;
35294;SDS011;21413;48.032;7.764;2022-08-24T05:33:11;6.47;;;5.97;;
35294;SDS011;21413;48.032;7.764;2022-08-24T05:35:37;6.60;;;6.10;;
35294;SDS011;21413;48.032;7.764;2022-08-24T05:38:03;8.33;;;7.73;;
35294;SDS011;21413;48.032;7.764;2022-08-24T05:40:30;5.67;;;5.47;;
35294;SDS011;21413;48.032;7.764;2022-08-24T05:42:56;7.37;;;5.80;;
35294;SDS011;21413;48.032;7.764;2022-08-24T05:45:22;5.67;;;5.30;;
35294;SDS011;21413;48.032;7.764;2022-08-24T05:47:48;6.30;;;5.70;;
35294;SDS011;21413;48.032;7.764;2022-08-24T05:50:14;6.00;;;5.50;;
35294;SDS011;21413;48.032;7.764;2022-08-24T05:52:40;9.80;;;5.40;;
35294;SDS011;21413;48.032;7.764;2022-08-24T05:55:06;5.67;;;5.13;;
35294;SDS011;21413;48.032;7.764;2022-08-24T05:57:33;6.40;;;4.70;;
35294;SDS011;21413;48.032;7.764;2022-08-24T05:59:59;7.33;;;4.90;;
35294;SDS011;21413;48.032;7.764;2022-08-24T06:02:25;6.73;;;5.70;;
35294;SDS011;21413;48.032;7.764;2022-08-24T06:04:51;5.73;;;5.33;;
35294;SDS011;21413;48.032;7.764;2022-08-24T06:07:17;6.03;;;5.63;;
35294;SDS011;21413;48.032;7.764;2022-08-24T06:09:43;5.50;;;5.20;;
35294;SDS011;21413;48.032;7.764;2022-08-24T06:12:10;6.50;;;5.20;;
35294;SDS011;21413;48.032;7.764;2022-08-24T06:14:36;5.80;;;5.30;;
35294;SDS011;21413;48.032;7.764;2022-08-24T06:17:03;6.53;;;6.03;;
35294;SDS011;21413;48.032;7.764;2022-08-24T06:19:29;6.00;;;5.43;;
35294;SDS011;21413;48.032;7.764;2022-08-24T06:21:56;6.03;;;5.40;;
35294;SDS011;21413;48.032;7.764;2022-08-24T06:24:23;4.93;;;4.73;;
35294;SDS011;21413;48.032;7.764;2022-08-24T06:27:10;5.10;;;4.70;;
35294;SDS011;21413;48.032;7.764;2022-08-24T06:29:45;4.97;;;4.63;;
35294;SDS011;21413;48.032;7.764;2022-08-24T06:32:11;14.13;;;10.10;;
35294;SDS011;21413;48.032;7.764;2022-08-24T06:34:37;7.10;;;6.70;;
35294;SDS011;21413;48.032;7.764;2022-08-24T06:37:03;7.53;;;4.70;;
35294;SDS011;21413;48.032;7.764;2022-08-24T06:39:29;4.70;;;4.50;;
35294;SDS011;21413;48.032;7.764;2022-08-24T06:41:55;5.43;;;5.10;;
35294;SDS011;21413;48.032;7.764;2022-08-24T06:44:21;4.97;;;4.50;;
35294;SDS011;21413;48.032;7.764;2022-08-24T06:46:47;5.10;;;4.80;;
35294;SDS011;21413;48.032;7.764;2022-08-24T06:49:14;5.10;;;4.67;;
35294;SDS011;21413;48.032;7.764;2022-08-24T06:51:40;5.33;;;4.83;;
35294;SDS011;21413;48.032;7.764;2022-08-24T06:54:06;8.03;;;7.47;;
35294;SDS011;21413;48.032;7.764;2022-08-24T06:56:34;7.83;;;5.50;;
35294;SDS011;21413;48.032;7.764;2022-08-24T06:59:00;4.57;;;4.37;;
35294;SDS011;21413;48.032;7.764;2022-08-24T07:01:28;4.80;;;4.40;;
35294;SDS011;21413;48.032;7.764;2022-08-24T07:03:54;5.07;;;4.60;;
35294;SDS011;21413;48.032;7.764;2022-08-24T07:06:21;13.67;;;12.47;;
35294;SDS011;21413;48.032;7.764;2022-08-24T07:08:47;6.07;;;5.07;;
35294;SDS011;21413;48.032;7.764;2022-08-24T07:11:13;5.60;;;5.20;;
35294;SDS011;21413;48.032;7.764;2022-08-24T07:13:42;4.30;;;3.97;;
35294;SDS011;21413;48.032;7.764;2022-08-24T07:16:08;4.60;;;4.20;;
35294;SDS011;21413;48.032;7.764;2022-08-24T07:18:34;8.97;;;8.20;;
35294;SDS011;21413;48.032;7.764;2022-08-24T07:21:01;10.23;;;9.20;;
35294;SDS011;21413;48.032;7.764;2022-08-24T07:23:27;5.13;;;4.87;;
35294;SDS011;21413;48.032;7.764;2022-08-24T07:25:53;14.20;;;12.53;;
35294;SDS011;21413;48.032;7.764;2022-08-24T07:28:19;7.10;;;6.43;;
35294;SDS011;21413;48.032;7.764;2022-08-24T07:30:45;6.10;;;4.43;;
35294;SDS011;21413;48.032;7.764;2022-08-24T07:33:11;5.80;;;4.50;;
35294;SDS011;21413;48.032;7.764;2022-08-24T07:35:38;4.83;;;4.43;;
35294;SDS011;21413;48.032;7.764;2022-08-24T07:38:04;4.50;;;4.30;;
35294;SDS011;21413;48.032;7.764;2022-08-24T07:40:31;4.53;;;4.33;;
35294;SDS011;21413;48.032;7.764;2022-08-24T07:42:57;4.87;;;4.47;;
35294;SDS011;21413;48.032;7.764;2022-08-24T07:45:24;5.07;;;4.70;;
35294;SDS011;21413;48.032;7.764;2022-08-24T07:47:51;7.03;;;4.07;;
35294;SDS011;21413;48.032;7.764;2022-08-24T07:50:17;7.33;;;3.77;;
35294;SDS011;21413;48.032;7.764;2022-08-24T07:52:44;7.73;;;3.90;;
35294;SDS011;21413;48.032;7.764;2022-08-24T07:55:10;3.93;;;3.83;;
35294;SDS011;21413;48.032;7.764;2022-08-24T07:57:38;5.93;;;5.10;;
35294;SDS011;21413;48.032;7.764;2022-08-24T08:00:08;5.30;;;4.80;;
35294;SDS011;21413;48.032;7.764;2022-08-24T08:02:35;17.80;;;4.13;;
35294;SDS011;21413;48.032;7.764;2022-08-24T08:05:01;4.93;;;4.17;;
35294;SDS011;21413;48.032;7.764;2022-08-24T08:07:27;4.43;;;4.03;;
35294;SDS011;21413;48.032;7.764;2022-08-24T08:09:55;4.40;;;3.80;;
35294;SDS011;21413;48.032;7.764;2022-08-24T08:12:20;5.27;;;3.80;;
35294;SDS011;21413;48.032;7.764;2022-08-24T08:14:46;4.07;;;3.87;;
35294;SDS011;21413;48.032;7.764;2022-08-24T08:17:13;7.30;;;3.80;;
35294;SDS011;21413;48.032;7.764;2022-08-24T08:19:40;3.97;;;3.77;;
35294;SDS011;21413;48.032;7.764;2022-08-24T08:22:08;5.40;;;4.00;;
35294;SDS011;21413;48.032;7.764;2022-08-24T08:24:53;13.60;;;12.17;;
35294;SDS011;21413;48.032;7.764;2022-08-24T08:27:19;3.93;;;3.73;;
35294;SDS011;21413;48.032;7.764;2022-08-24T08:29:46;6.20;;;3.70;;
35294;SDS011;21413;48.032;7.764;2022-08-24T08:32:12;3.17;;;3.17;;
35294;SDS011;21413;48.032;7.764;2022-08-24T08:34:41;4.37;;;4.07;;
35294;SDS011;21413;48.032;7.764;2022-08-24T08:37:07;3.87;;;3.30;;
35294;SDS011;21413;48.032;7.764;2022-08-24T08:39:33;2.67;;;2.60;;
35294;SDS011;21413;48.032;7.764;2022-08-24T08:44:50;4.63;;;3.50;;
35294;SDS011;21413;48.032;7.764;2022-08-24T09:00:43;5.50;;;3.50;;
35294;SDS011;21413;48.032;7.764;2022-08-24T09:08:25;4.70;;;3.90;;
35294;SDS011;21413;48.032;7.764;2022-08-24T09:10:55;5.47;;;4.00;;
35294;SDS011;21413;48.032;7.764;2022-08-24T09:21:10;4.00;;;3.80;;
35294;SDS011;21413;48.032;7.764;2022-08-24T09:26:29;3.63;;;3.30;;
35294;SDS011;21413;48.032;7.764;2022-08-24T09:31:47;8.47;;;5.20;;
35294;SDS011;21413;48.032;7.764;2022-08-24T09:50:11;7.67;;;4.20;;
35294;SDS011;21413;48.032;7.764;2022-08-24T09:52:50;4.17;;;3.50;;
35294;SDS011;21413;48.032;7.764;2022-08-24T09:58:15;3.23;;;3.10;;
35294;SDS011;21413;48.032;7.764;2022-08-24T10:00:44;6.00;;;3.00;;
35294;SDS011;21413;48.032;7.764;2022-08-24T10:03:25;3.40;;;3.10;;
35294;SDS011;21413;48.032;7.764;2022-08-24T10:08:32;9.20;;;2.77;;
35294;SDS011;21413;48.032;7.764;2022-08-24T10:13:31;3.90;;;3.10;;
35294;SDS011;21413;48.032;7.764;2022-08-24T10:29:18;3.57;;;2.40;;
35294;SDS011;21413;48.032;7.764;2022-08-24T10:45:16;2.60;;;2.13;;
35294;SDS011;21413;48.032;7.764;2022-08-24T10:50:36;3.03;;;1.80;;
35294;SDS011;21413;48.032;7.764;2022-08-24T10:55:41;3.90;;;1.70;;
35294;SDS011;21413;48.032;7.764;2022-08-24T11:00:53;1.60;;;1.50;;
35294;SDS011;21413;48.032;7.764;2022-08-24T11:03:19;1.40;;;1.30;;
35294;SDS011;21413;48.032;7.764;2022-08-24T11:05:51;2.50;;;1.30;;
35294;SDS011;21413;48.032;7.764;2022-08-24T11:10:45;1.40;;;1.40;;
35294;SDS011;21413;48.032;7.764;2022-08-24T11:13:24;1.17;;;1.17;;
35294;SDS011;21413;48.032;7.764;2022-08-24T11:15:53;3.00;;;1.60;;
35294;SDS011;21413;48.032;7.764;2022-08-24T11:18:19;1.30;;;1.30;;
35294;SDS011;21413;48.032;7.764;2022-08-24T11:20:47;1.17;;;1.17;;
35294;SDS011;21413;48.032;7.764;2022-08-24T11:25:41;1.20;;;1.20;;
35294;SDS011;21413;48.032;7.764;2022-08-24T11:30:39;1.10;;;1.10;;
35294;SDS011;21413;48.032;7.764;2022-08-24T11:33:05;1.37;;;1.37;;
35294;SDS011;21413;48.032;7.764;2022-08-24T11:35:48;3.37;;;1.20;;
35294;SDS011;21413;48.032;7.764;2022-08-24T11:38:17;1.27;;;1.27;;
35294;SDS011;21413;48.032;7.764;2022-08-24T11:41:05;7.30;;;1.30;;
35294;SDS011;21413;48.032;7.764;2022-08-24T11:46:26;2.07;;;1.40;;
35294;SDS011;21413;48.032;7.764;2022-08-24T11:49:05;1.50;;;1.40;;
35294;SDS011;21413;48.032;7.764;2022-08-24T11:54:17;1.73;;;1.23;;
35294;SDS011;21413;48.032;7.764;2022-08-24T11:59:23;1.57;;;1.47;;
35294;SDS011;21413;48.032;7.764;2022-08-24T12:01:57;1.80;;;1.37;;
35294;SDS011;21413;48.032;7.764;2022-08-24T12:04:34;1.97;;;1.87;;
35294;SDS011;21413;48.032;7.764;2022-08-24T12:07:10;1.37;;;1.27;;
35294;SDS011;21413;48.032;7.764;2022-08-24T12:12:31;1.70;;;1.60;;
35294;SDS011;21413;48.032;7.764;2022-08-24T12:15:07;1.53;;;1.40;;
35294;SDS011;21413;48.032;7.764;2022-08-24T12:17:40;1.70;;;1.70;;
35294;SDS011;21413;48.032;7.764;2022-08-24T12:20:23;1.30;;;1.30;;
35294;SDS011;21413;48.032;7.764;2022-08-24T12:22:51;3.13;;;1.57;;
35294;SDS011;21413;48.032;7.764;2022-08-24T12:25:17;3.67;;;1.30;;
35294;SDS011;21413;48.032;7.764;2022-08-24T12:28:03;4.63;;;4.13;;
35294;SDS011;21413;48.032;7.764;2022-08-24T12:30:29;1.70;;;1.60;;
35294;SDS011;21413;48.032;7.764;2022-08-24T12:32:59;1.13;;;1.10;;
35294;SDS011;21413;48.032;7.764;2022-08-24T12:35:36;1.30;;;1.30;;
35294;SDS011;21413;48.032;7.764;2022-08-24T12:40:41;1.03;;;1.03;;
35294;SDS011;21413;48.032;7.764;2022-08-24T12:43:18;1.33;;;1.23;;
35294;SDS011;21413;48.032;7.764;2022-08-24T12:45:47;3.00;;;1.33;;
35294;SDS011;21413;48.032;7.764;2022-08-24T12:56:09;2.23;;;1.30;;
35294;SDS011;21413;48.032;7.764;2022-08-24T13:01:14;1.57;;;1.47;;
35294;SDS011;21413;48.032;7.764;2022-08-24T13:03:41;1.37;;;1.37;;
35294;SDS011;21413;48.032;7.764;2022-08-24T13:06:27;2.10;;;1.20;;
35294;SDS011;21413;48.032;7.764;2022-08-24T13:09:14;8.00;;;1.23;;
35294;SDS011;21413;48.032;7.764;2022-08-24T13:11:41;1.37;;;1.17;;
35294;SDS011;21413;48.032;7.764;2022-08-24T13:21:51;1.17;;;1.17;;
35294;SDS011;21413;48.032;7.764;2022-08-24T13:26:57;3.97;;;1.57;;
35294;SDS011;21413;48.032;7.764;2022-08-24T13:29:25;1.10;;;1.10;;
35294;SDS011;21413;48.032;7.764;2022-08-24T13:31:52;1.50;;;1.50;;
35294;SDS011;21413;48.032;7.764;2022-08-24T13:39:39;2.10;;;0.83;;
35294;SDS011;21413;48.032;7.764;2022-08-24T13:42:11;4.80;;;4.60;;
35294;SDS011;21413;48.032;7.764;2022-08-24T13:50:12;2.03;;;1.30;;
35294;SDS011;21413;48.032;7.764;2022-08-24T13:58:17;2.27;;;1.20;;
35294;SDS011;21413;48.032;7.764;2022-08-24T14:01:00;2.73;;;1.13;;
35294;SDS011;21413;48.032;7.764;2022-08-24T14:03:36;2.53;;;1.30;;
35294;SDS011;21413;48.032;7.764;2022-08-24T14:08:44;2.80;;;1.20;;
35294;SDS011;21413;48.032;7.764;2022-08-24T14:11:18;1.83;;;1.30;;
35294;SDS011;21413;48.032;7.764;2022-08-24T14:13:59;2.30;;;1.10;;
35294;SDS011;21413;48.032;7.764;2022-08-24T14:16:31;1.30;;;1.30;;
35294;SDS011;21413;48.032;7.764;2022-08-24T14:19:24;1.30;;;1.30;;
35294;SDS011;21413;48.032;7.764;2022-08-24T14:24:30;1.57;;;1.57;;
35294;SDS011;21413;48.032;7.764;2022-08-24T14:27:05;1.73;;;1.00;;
35294;SDS011;21413;48.032;7.764;2022-08-24T14:29:36;1.30;;;1.30;;
35294;SDS011;21413;48.032;7.764;2022-08-24T14:37:04;1.43;;;1.33;;
35294;SDS011;21413;48.032;7.764;2022-08-24T14:42:23;1.13;;;1.03;;
35294;SDS011;21413;48.032;7.764;2022-08-24T14:50:00;2.10;;;1.07;;
35294;SDS011;21413;48.032;7.764;2022-08-24T15:05:14;1.30;;;1.20;;
35294;SDS011;21413;48.032;7.764;2022-08-24T15:10:28;1.30;;;1.20;;
35294;SDS011;21413;48.032;7.764;2022-08-24T15:12:59;1.30;;;1.00;;
35294;SDS011;21413;48.032;7.764;2022-08-24T15:15:28;1.03;;;1.03;;
35294;SDS011;21413;48.032;7.764;2022-08-24T15:18:07;1.80;;;1.03;;
35294;SDS011;21413;48.032;7.764;2022-08-24T15:23:17;0.80;;;0.80;;
35294;SDS011;21413;48.032;7.764;2022-08-24T15:25:49;1.63;;;0.97;;
35294;SDS011;21413;48.032;7.764;2022-08-24T15:28:25;2.27;;;2.07;;
35294;SDS011;21413;48.032;7.764;2022-08-24T15:30:54;2.37;;;1.10;;
35294;SDS011;21413;48.032;7.764;2022-08-24T15:33:21;0.93;;;0.90;;
35294;SDS011;21413;48.032;7.764;2022-08-24T15:35:49;1.03;;;1.03;;
35294;SDS011;21413;48.032;7.764;2022-08-24T15:40:52;2.60;;;1.10;;
35294;SDS011;21413;48.032;7.764;2022-08-24T15:43:27;1.63;;;1.00;;
35294;SDS011;21413;48.032;7.764;2022-08-24T15:45:53;3.80;;;0.83;;
35294;SDS011;21413;48.032;7.764;2022-08-24T15:48:20;5.67;;;1.10;;
35294;SDS011;21413;48.032;7.764;2022-08-24T15:50:48;2.33;;;1.03;;
35294;SDS011;21413;48.032;7.764;2022-08-24T15:55:53;0.90;;;0.90;;
35294;SDS011;21413;48.032;7.764;2022-08-24T15:58:24;3.43;;;1.07;;
35294;SDS011;21413;48.032;7.764;2022-08-24T16:00:57;3.70;;;0.90;;
35294;SDS011;21413;48.032;7.764;2022-08-24T16:03:52;0.80;;;0.80;;
35294;SDS011;21413;48.032;7.764;2022-08-24T16:08:58;0.97;;;0.97;;
35294;SDS011;21413;48.032;7.764;2022-08-24T16:11:27;2.60;;;1.00;;
35294;SDS011;21413;48.032;7.764;2022-08-24T16:13:53;1.00;;;0.97;;
35294;SDS011;21413;48.032;7.764;2022-08-24T16:16:29;3.33;;;0.77;;
35294;SDS011;21413;48.032;7.764;2022-08-24T16:18:58;0.93;;;0.93;;
35294;SDS011;21413;48.032;7.764;2022-08-24T16:23:58;1.10;;;1.00;;
35294;SDS011;21413;48.032;7.764;2022-08-24T16:26:30;1.57;;;1.10;;
35294;SDS011;21413;48.032;7.764;2022-08-24T16:28:56;2.73;;;0.93;;
35294;SDS011;21413;48.032;7.764;2022-08-24T16:34:08;0.60;;;0.60;;
35294;SDS011;21413;48.032;7.764;2022-08-24T16:36:36;0.70;;;0.70;;
35294;SDS011;21413;48.032;7.764;2022-08-24T16:39:02;6.97;;;1.10;;
35294;SDS011;21413;48.032;7.764;2022-08-24T16:41:29;0.93;;;0.93;;
35294;SDS011;21413;48.032;7.764;2022-08-24T16:43:55;2.63;;;1.00;;
35294;SDS011;21413;48.032;7.764;2022-08-24T16:46:22;3.13;;;0.90;;
35294;SDS011;21413;48.032;7.764;2022-08-24T16:48:48;0.80;;;0.80;;
35294;SDS011;21413;48.032;7.764;2022-08-24T16:51:14;0.70;;;0.70;;
35294;SDS011;21413;48.032;7.764;2022-08-24T16:53:40;1.07;;;0.73;;
35294;SDS011;21413;48.032;7.764;2022-08-24T16:56:06;2.10;;;0.90;;
35294;SDS011;21413;48.032;7.764;2022-08-24T16:58:33;1.10;;;1.10;;
35294;SDS011;21413;48.032;7.764;2022-08-24T17:01:00;6.13;;;1.00;;
35294;SDS011;21413;48.032;7.764;2022-08-24T17:03:26;0.87;;;0.87;;
35294;SDS011;21413;48.032;7.764;2022-08-24T17:05:53;3.70;;;0.90;;
35294;SDS011;21413;48.032;7.764;2022-08-24T17:08:19;0.70;;;0.70;;
35294;SDS011;21413;48.032;7.764;2022-08-24T17:10:45;4.93;;;1.07;;
35294;SDS011;21413;48.032;7.764;2022-08-24T17:13:11;1.07;;;1.07;;
35294;SDS011;21413;48.032;7.764;2022-08-24T17:15:37;1.10;;;1.10;;
35294;SDS011;21413;48.032;7.764;2022-08-24T17:18:05;5.87;;;1.10;;
35294;SDS011;21413;48.032;7.764;2022-08-24T17:20:32;0.90;;;0.90;;
35294;SDS011;21413;48.032;7.764;2022-08-24T17:22:58;1.90;;;1.00;;
35294;SDS011;21413;48.032;7.764;2022-08-24T17:25:24;2.30;;;0.83;;
35294;SDS011;21413;48.032;7.764;2022-08-24T17:27:51;0.90;;;0.90;;
35294;SDS011;21413;48.032;7.764;2022-08-24T17:30:18;3.70;;;0.70;;
35294;SDS011;21413;48.032;7.764;2022-08-24T17:32:46;1.73;;;0.80;;
35294;SDS011;21413;48.032;7.764;2022-08-24T17:35:13;0.80;;;0.80;;
35294;SDS011;21413;48.032;7.764;2022-08-24T17:37:39;2.10;;;0.90;;
35294;SDS011;21413;48.032;7.764;2022-08-24T17:40:07;0.80;;;0.80;;
35294;SDS011;21413;48.032;7.764;2022-08-24T17:42:34;1.43;;;1.00;;
35294;SDS011;21413;48.032;7.764;2022-08-24T17:45:00;0.70;;;0.70;;
35294;SDS011;21413;48.032;7.764;2022-08-24T17:47:26;1.17;;;1.10;;
35294;SDS011;21413;48.032;7.764;2022-08-24T17:49:52;1.20;;;1.00;;
35294;SDS011;21413;48.032;7.764;2022-08-24T17:52:18;3.10;;;1.10;;
35294;SDS011;21413;48.032;7.764;2022-08-24T17:54:44;0.90;;;0.90;;
35294;SDS011;21413;48.032;7.764;2022-08-24T17:57:13;2.80;;;1.10;;
35294;SDS011;21413;48.032;7.764;2022-08-24T17:59:39;1.00;;;0.90;;
35294;SDS011;21413;48.032;7.764;2022-08-24T18:02:07;1.03;;;1.03;;
35294;SDS011;21413;48.032;7.764;2022-08-24T18:04:34;1.20;;;1.10;;
35294;SDS011;21413;48.032;7.764;2022-08-24T18:07:02;1.07;;;1.07;;
35294;SDS011;21413;48.032;7.764;2022-08-24T18:09:29;1.90;;;1.10;;
35294;SDS011;21413;48.032;7.764;2022-08-24T18:11:56;1.03;;;1.03;;
35294;SDS011;21413;48.032;7.764;2022-08-24T18:14:23;1.33;;;1.33;;
35294;SDS011;21413;48.032;7.764;2022-08-24T18:16:49;0.97;;;0.97;;
35294;SDS011;21413;48.032;7.764;2022-08-24T18:19:15;1.90;;;1.20;;